createdAt,value
2022-09-09T00:00:18.685Z,1.50
2022-09-09T00:02:55.841Z,1.50
2022-09-09T00:05:33.392Z,1.70
2022-09-09T00:08:06.572Z,1.20
2022-09-09T00:10:40.574Z,1.42
2022-09-09T00:13:18.263Z,1.45
2022-09-09T00:15:57.820Z,1.70
2022-09-09T00:18:31.485Z,1.50
2022-09-09T00:21:08.522Z,1.42
2022-09-09T00:23:41.570Z,1.60
2022-09-09T00:26:17.930Z,1.42
2022-09-09T00:28:53.589Z,1.73
2022-09-09T00:31:27.437Z,1.42
2022-09-09T00:33:57.132Z,1.60
2022-09-09T00:36:30.102Z,1.65
2022-09-09T00:39:02.567Z,1.70
2022-09-09T00:41:46.285Z,1.98
2022-09-09T00:44:27.346Z,1.45
2022-09-09T00:47:07.117Z,2.00
2022-09-09T00:49:49.597Z,1.52
2022-09-09T00:52:30.141Z,1.75
2022-09-09T00:55:05.707Z,1.58
2022-09-09T00:57:35.648Z,1.35
2022-09-09T01:00:24.252Z,1.48
2022-09-09T01:03:04.787Z,1.50
2022-09-09T01:05:42.077Z,1.48
2022-09-09T01:08:25.815Z,1.70
2022-09-09T01:13:31.302Z,1.70
2022-09-09T01:18:41.721Z,1.77
2022-09-09T01:21:19.460Z,1.60
2022-09-09T01:24:10.056Z,1.70
2022-09-09T01:27:05.820Z,2.17
2022-09-09T01:29:37.539Z,1.52
2022-09-09T01:32:40.370Z,1.70
2022-09-09T01:35:13.082Z,1.70
2022-09-09T01:37:41.850Z,1.90
2022-09-09T01:40:10.496Z,2.40
2022-09-09T01:42:41.295Z,2.53
2022-09-09T01:45:11.072Z,1.98
2022-09-09T01:47:40.043Z,2.10
2022-09-09T01:50:28.833Z,2.05
2022-09-09T01:53:00.491Z,1.98
2022-09-09T01:55:35.575Z,2.55
2022-09-09T01:58:30.253Z,2.20
2022-09-09T02:01:08.839Z,2.20
2022-09-09T02:03:37.657Z,2.20
2022-09-09T02:06:27.337Z,2.25
2022-09-09T02:09:04.593Z,1.90
2022-09-09T02:11:34.769Z,1.98
2022-09-09T02:14:15.104Z,2.08
2022-09-09T02:16:52.240Z,2.35
2022-09-09T02:19:27.972Z,1.75
2022-09-09T02:22:18.424Z,1.93
2022-09-09T02:24:47.375Z,2.05
2022-09-09T02:27:25.384Z,1.98
2022-09-09T02:29:58.455Z,1.90
2022-09-09T02:32:40.740Z,2.25
2022-09-09T02:35:16.629Z,1.83
2022-09-09T02:37:51.199Z,2.10
2022-09-09T02:40:19.894Z,2.20
2022-09-09T02:42:52.564Z,1.80
2022-09-09T02:45:29.601Z,2.00
2022-09-09T02:48:10.094Z,1.90
2022-09-09T02:50:48.058Z,1.75
2022-09-09T02:53:22.302Z,1.80
2022-09-09T02:55:57.020Z,1.65
2022-09-09T02:58:26.442Z,1.48
2022-09-09T03:01:02.229Z,1.88
2022-09-09T03:03:34.561Z,1.98
2022-09-09T03:06:07.378Z,1.92
2022-09-09T03:08:35.404Z,1.83
2022-09-09T03:11:03.297Z,1.80
2022-09-09T03:13:34.822Z,1.70
2022-09-09T03:16:06.189Z,1.92
2022-09-09T03:18:39.931Z,1.73
2022-09-09T03:21:09.704Z,1.85
2022-09-09T03:23:40.892Z,1.70
2022-09-09T03:26:09.676Z,2.05
2022-09-09T03:28:46.456Z,1.77
2022-09-09T03:31:20.579Z,1.60
2022-09-09T03:33:48.957Z,2.00
2022-09-09T03:36:19.529Z,1.92
2022-09-09T03:38:47.804Z,2.00
2022-09-09T03:41:15.849Z,1.85
2022-09-09T03:43:45.781Z,1.58
2022-09-09T03:46:13.676Z,1.90
2022-09-09T03:48:43.051Z,1.60
2022-09-09T03:51:11.651Z,1.73
2022-09-09T03:53:40.127Z,1.83
2022-09-09T03:56:09.497Z,1.55
2022-09-09T03:58:40.367Z,2.38
2022-09-09T04:01:12.007Z,2.00
2022-09-09T04:03:40.681Z,2.17
2022-09-09T04:06:14.523Z,2.00
2022-09-09T04:08:49.456Z,1.95
2022-09-09T04:11:18.973Z,2.03
2022-09-09T04:13:50.187Z,2.33
2022-09-09T04:16:19.902Z,2.20
2022-09-09T04:18:48.574Z,1.70
2022-09-09T04:21:19.250Z,2.50
2022-09-09T04:23:47.693Z,2.08
2022-09-09T04:26:16.011Z,1.98
2022-09-09T04:28:46.588Z,2.30
2022-09-09T04:33:51.639Z,1.80
2022-09-09T04:36:22.156Z,1.80
2022-09-09T04:38:52.475Z,2.05
2022-09-09T04:41:22.025Z,2.30
2022-09-09T04:43:53.470Z,2.38
2022-09-09T04:46:24.650Z,1.90
2022-09-09T04:48:55.755Z,1.70
2022-09-09T04:51:32.213Z,1.92
2022-09-09T04:54:00.760Z,1.90
2022-09-09T04:56:29.191Z,1.83
2022-09-09T04:58:59.501Z,2.08
2022-09-09T05:01:48.901Z,1.70
2022-09-09T05:04:17.751Z,1.85
2022-09-09T05:06:47.532Z,2.63
2022-09-09T05:09:16.120Z,2.00
2022-09-09T05:11:45.772Z,2.30
2022-09-09T05:14:23.866Z,2.20
2022-09-09T05:16:55.173Z,2.38
2022-09-09T05:19:24.474Z,2.50
2022-09-09T05:21:55.483Z,1.40
2022-09-09T05:24:29.482Z,2.05
2022-09-09T05:27:02.562Z,1.58
2022-09-09T05:29:30.695Z,1.98
2022-09-09T05:31:58.795Z,2.00
2022-09-09T05:34:26.880Z,1.88
2022-09-09T05:36:59.520Z,1.60
2022-09-09T05:42:07.612Z,2.10
2022-09-09T05:44:35.658Z,1.83
2022-09-09T05:47:04.189Z,1.92
2022-09-09T05:49:32.845Z,1.55
2022-09-09T05:52:07.956Z,1.42
2022-09-09T05:54:36.411Z,1.55
2022-09-09T05:57:04.788Z,1.75
2022-09-09T05:59:33.398Z,1.75
2022-09-09T06:02:02.299Z,1.42
2022-09-09T06:04:35.961Z,1.40
2022-09-09T06:07:07.217Z,1.95
2022-09-09T06:09:35.320Z,1.20
2022-09-09T06:12:04.287Z,1.30
2022-09-09T06:14:36.134Z,1.00
2022-09-09T06:17:04.074Z,1.80
2022-09-09T06:19:32.865Z,1.30
2022-09-09T06:22:03.338Z,1.30
2022-09-09T06:24:36.234Z,0.98
2022-09-09T06:27:06.571Z,1.13
2022-09-09T06:29:39.507Z,1.17
2022-09-09T06:32:09.756Z,1.23
2022-09-09T06:34:37.955Z,1.20
2022-09-09T06:37:07.855Z,1.40
2022-09-09T06:39:42.783Z,1.40
2022-09-09T06:42:10.823Z,1.60
2022-09-09T06:44:53.506Z,0.82
2022-09-09T06:47:45.604Z,1.50
2022-09-09T06:50:13.375Z,1.00
2022-09-09T06:52:41.306Z,1.00
2022-09-09T06:55:14.042Z,1.42
2022-09-09T06:57:42.946Z,1.42
2022-09-09T07:00:16.534Z,1.00
2022-09-09T07:02:45.534Z,1.38
2022-09-09T07:05:14.395Z,1.50
2022-09-09T07:07:44.362Z,1.42
2022-09-09T07:10:15.467Z,1.30
2022-09-09T07:12:44.137Z,1.48
2022-09-09T07:15:14.770Z,1.40
2022-09-09T07:17:46.004Z,1.40
2022-09-09T07:20:15.804Z,1.02
2022-09-09T07:22:43.893Z,1.73
2022-09-09T07:25:12.745Z,1.50
2022-09-09T07:27:42.167Z,1.20
2022-09-09T07:30:14.765Z,1.33
2022-09-09T07:32:47.371Z,1.48
2022-09-09T07:35:17.473Z,1.40
2022-09-09T07:37:51.022Z,1.50
2022-09-09T07:40:23.338Z,1.45
2022-09-09T07:42:54.865Z,0.98
2022-09-09T07:45:23.331Z,1.23
2022-09-09T07:47:52.026Z,1.42
2022-09-09T07:50:20.849Z,1.38
2022-09-09T07:52:49.703Z,1.45
2022-09-09T07:55:20.775Z,1.65
2022-09-09T07:57:49.071Z,1.42
2022-09-09T08:00:21.179Z,1.55
2022-09-09T08:02:55.262Z,1.95
2022-09-09T08:05:24.544Z,1.42
2022-09-09T08:07:52.736Z,1.15
2022-09-09T08:10:20.562Z,1.30
2022-09-09T08:13:07.759Z,1.20
2022-09-09T08:15:40.713Z,1.80
2022-09-09T08:18:10.333Z,1.40
2022-09-09T08:20:40.192Z,1.77
2022-09-09T08:23:08.724Z,1.50
2022-09-09T08:25:37.915Z,2.30
2022-09-09T08:28:08.876Z,1.08
2022-09-09T08:30:38.474Z,1.30
2022-09-09T08:33:11.436Z,2.22
2022-09-09T08:35:39.505Z,1.58
2022-09-09T08:38:10.984Z,1.60
2022-09-09T08:40:50.289Z,1.73
2022-09-09T08:43:23.867Z,1.50
2022-09-09T08:46:02.320Z,1.70
2022-09-09T08:48:51.076Z,1.65
2022-09-09T08:51:20.873Z,4.47
2022-09-09T08:53:54.469Z,1.60
2022-09-09T08:56:28.590Z,1.83
2022-09-09T08:59:04.887Z,3.47
2022-09-09T09:01:51.343Z,1.75
2022-09-09T09:04:40.526Z,1.50
2022-09-09T09:07:22.134Z,1.40
2022-09-09T09:10:11.817Z,1.70
2022-09-09T09:12:50.075Z,1.30
2022-09-09T09:15:23.300Z,1.20
2022-09-09T09:17:53.402Z,1.58
2022-09-09T09:20:31.104Z,1.40
2022-09-09T09:23:05.002Z,1.40
2022-09-09T09:25:37.555Z,1.60
2022-09-09T09:28:18.527Z,1.50
2022-09-09T09:30:54.683Z,1.55
2022-09-09T09:33:29.668Z,1.67
2022-09-09T09:36:01.960Z,1.92
2022-09-09T09:41:31.151Z,1.45
2022-09-09T09:44:00.427Z,1.55
2022-09-09T09:46:30.859Z,1.50
2022-09-09T09:49:11.820Z,1.50
2022-09-09T09:51:46.857Z,1.77
2022-09-09T09:54:25.094Z,1.77
2022-09-09T09:56:57.821Z,1.55
2022-09-09T09:59:39.768Z,2.00
2022-09-09T10:02:17.870Z,1.90
2022-09-09T10:04:48.647Z,1.50
2022-09-09T10:07:24.890Z,1.55
2022-09-09T10:09:57.217Z,1.50
2022-09-09T10:12:37.650Z,1.45
2022-09-09T10:15:18.203Z,1.48
2022-09-09T10:18:03.028Z,1.50
2022-09-09T10:20:41.361Z,1.25
2022-09-09T10:23:23.084Z,1.50
2022-09-09T10:26:09.592Z,1.13
2022-09-09T10:28:56.756Z,1.02
2022-09-09T10:31:32.633Z,1.35
2022-09-09T10:34:09.269Z,1.25
2022-09-09T10:36:43.020Z,1.85
2022-09-09T10:39:27.772Z,1.00
2022-09-09T10:42:04.880Z,1.38
2022-09-09T10:44:43.992Z,1.00
2022-09-09T10:47:42.022Z,1.38
2022-09-09T10:51:05.468Z,0.95
2022-09-09T10:53:39.879Z,1.42
2022-09-09T10:56:13.193Z,1.27
2022-09-09T10:58:46.831Z,1.42
2022-09-09T11:01:21.579Z,1.15
2022-09-09T11:03:55.812Z,0.80
2022-09-09T11:06:29.196Z,1.40
2022-09-09T11:09:02.534Z,1.30
2022-09-09T11:11:41.693Z,1.48
2022-09-09T11:14:17.566Z,1.00
2022-09-09T11:16:52.020Z,1.05
2022-09-09T11:19:28.741Z,1.27
2022-09-09T11:21:59.747Z,0.93
2022-09-09T11:24:33.679Z,0.68
2022-09-09T11:27:13.274Z,0.93
2022-09-09T11:30:02.511Z,1.17
2022-09-09T11:32:55.040Z,0.80
2022-09-09T11:35:41.481Z,1.05
2022-09-09T11:38:22.162Z,1.05
2022-09-09T11:40:58.970Z,1.10
2022-09-09T11:43:34.541Z,0.90
2022-09-09T11:46:07.109Z,1.00
2022-09-09T11:48:38.709Z,0.93
2022-09-09T11:51:14.562Z,1.55
2022-09-09T11:53:52.936Z,1.33
2022-09-09T11:56:29.637Z,1.40
2022-09-09T11:59:02.978Z,1.30
2022-09-09T12:01:52.910Z,1.20
2022-09-09T12:04:38.539Z,1.20
2022-09-09T12:07:25.716Z,1.27
2022-09-09T12:09:57.692Z,0.93
2022-09-09T12:12:31.815Z,1.50
2022-09-09T12:15:24.510Z,1.15
2022-09-09T12:17:56.522Z,1.20
2022-09-09T12:20:35.536Z,1.02
2022-09-09T12:23:26.585Z,1.23
2022-09-09T12:26:05.560Z,1.27
2022-09-09T12:28:48.741Z,1.00
2022-09-09T12:31:24.358Z,1.13
2022-09-09T12:33:53.769Z,1.63
2022-09-09T12:36:25.045Z,1.15
2022-09-09T12:38:53.574Z,1.35
2022-09-09T12:41:24.541Z,1.20
2022-09-09T12:43:52.994Z,1.20
2022-09-09T12:46:40.078Z,1.25
2022-09-09T12:49:26.398Z,0.90
2022-09-09T12:51:55.030Z,0.90
2022-09-09T12:54:24.579Z,0.77
2022-09-09T12:56:55.177Z,0.70
2022-09-09T12:59:27.586Z,0.80
2022-09-09T13:02:01.216Z,0.25
2022-09-09T13:04:29.963Z,0.20
2022-09-09T13:07:12.659Z,0.13
2022-09-09T13:09:41.804Z,0.10
2022-09-09T13:12:16.754Z,0.20
2022-09-09T13:14:50.793Z,0.17
2022-09-09T13:17:29.407Z,0.20
2022-09-09T13:19:59.024Z,0.20
2022-09-09T13:22:34.594Z,0.28
2022-09-09T13:25:10.430Z,0.30
2022-09-09T13:27:44.812Z,0.32
2022-09-09T13:30:26.627Z,0.30
2022-09-09T13:33:23.540Z,0.40
2022-09-09T13:35:58.503Z,0.60
2022-09-09T13:38:27.818Z,0.55
2022-09-09T13:41:03.102Z,0.50
2022-09-09T13:43:37.087Z,0.55
2022-09-09T13:46:08.520Z,0.82
2022-09-09T13:48:39.416Z,0.52
2022-09-09T13:51:07.467Z,0.60
2022-09-09T13:53:35.288Z,0.68
2022-09-09T13:56:03.853Z,0.75
2022-09-09T13:58:32.443Z,0.70
2022-09-09T14:01:00.763Z,0.35
2022-09-09T14:03:28.959Z,0.60
2022-09-09T14:05:58.885Z,0.35
2022-09-09T14:08:29.796Z,0.45
2022-09-09T14:10:59.394Z,0.30
2022-09-09T14:13:27.466Z,0.30
2022-09-09T14:15:55.736Z,0.60
2022-09-09T14:18:26.334Z,0.30
2022-09-09T14:20:55.019Z,0.20
2022-09-09T14:23:25.341Z,0.25
2022-09-09T14:25:54.091Z,0.45
2022-09-09T14:28:39.451Z,0.57
2022-09-09T14:31:14.588Z,0.50
2022-09-09T14:33:49.880Z,0.43
2022-09-09T14:36:18.015Z,0.68
2022-09-09T14:38:47.688Z,0.57
2022-09-09T14:41:18.881Z,0.50
2022-09-09T14:43:47.355Z,0.70
2022-09-09T14:46:16.771Z,0.75
2022-09-09T14:48:45.124Z,0.60
2022-09-09T14:51:16.787Z,1.10
2022-09-09T14:53:45.880Z,0.70
2022-09-09T14:56:17.594Z,1.23
2022-09-09T14:58:48.945Z,0.90
2022-09-09T15:01:19.564Z,0.73
2022-09-09T15:03:52.889Z,1.10
2022-09-09T15:06:22.772Z,1.00
2022-09-09T15:08:53.589Z,1.63
2022-09-09T15:11:25.654Z,1.80
2022-09-09T15:13:55.451Z,2.08
2022-09-09T15:16:26.236Z,9.48
2022-09-09T15:18:56.222Z,1.75
2022-09-09T15:21:25.826Z,1.20
2022-09-09T15:23:54.270Z,0.93
2022-09-09T15:26:24.174Z,0.90
2022-09-09T15:28:52.456Z,0.77
2022-09-09T15:31:21.850Z,0.80
2022-09-09T15:33:50.656Z,0.52
2022-09-09T15:36:20.842Z,1.15
2022-09-09T15:38:51.656Z,0.85
2022-09-09T15:41:22.073Z,0.80
2022-09-09T15:43:52.846Z,0.80
2022-09-09T15:46:28.877Z,3.78
2022-09-09T15:48:58.084Z,7.72
2022-09-09T15:51:44.275Z,9.23
2022-09-09T15:54:15.035Z,1.70
2022-09-09T15:56:44.028Z,0.98
2022-09-09T15:59:13.635Z,2.15
2022-09-09T16:01:43.227Z,0.95
2022-09-09T16:04:12.493Z,1.02
2022-09-09T16:06:40.889Z,0.73
2022-09-09T16:09:11.126Z,1.60
2022-09-09T16:11:41.664Z,0.82
2022-09-09T16:14:09.974Z,0.82
2022-09-09T16:16:39.963Z,0.90
2022-09-09T16:19:11.021Z,1.00
2022-09-09T16:21:42.027Z,1.00
2022-09-09T16:24:12.508Z,0.90
2022-09-09T16:26:44.050Z,1.20
2022-09-09T16:29:12.176Z,0.93
2022-09-09T16:31:41.653Z,0.80
2022-09-09T16:34:10.505Z,0.90
2022-09-09T16:36:41.668Z,0.40
2022-09-09T16:39:12.066Z,0.75
2022-09-09T16:41:41.579Z,0.75
2022-09-09T16:44:13.507Z,0.63
2022-09-09T16:46:44.565Z,0.55
2022-09-09T16:49:14.389Z,0.70
2022-09-09T16:51:44.731Z,0.68
2022-09-09T16:54:14.965Z,1.15
2022-09-09T16:56:44.818Z,0.98
2022-09-09T16:59:15.973Z,0.80
2022-09-09T17:01:46.823Z,1.63
2022-09-09T17:04:23.646Z,0.95
2022-09-09T17:06:53.145Z,0.93
2022-09-09T17:09:23.383Z,1.02
2022-09-09T17:11:53.518Z,0.93
2022-09-09T17:14:24.700Z,0.70
2022-09-09T17:16:54.989Z,0.90
2022-09-09T17:19:23.094Z,0.73
2022-09-09T17:22:16.934Z,1.02
2022-09-09T17:24:41.554Z,0.93
2022-09-09T17:27:09.938Z,0.88
2022-09-09T17:29:37.787Z,0.80
2022-09-09T17:32:08.483Z,0.70
2022-09-09T17:34:37.121Z,0.90
2022-09-09T17:37:07.011Z,1.20
2022-09-09T17:39:35.005Z,1.30
2022-09-09T17:42:03.546Z,1.42
2022-09-09T17:44:33.318Z,1.23
2022-09-09T17:47:01.632Z,1.90
2022-09-09T17:49:35.155Z,1.20
2022-09-09T17:52:03.898Z,1.30
2022-09-09T17:54:34.170Z,1.17
2022-09-09T17:57:02.168Z,1.50
2022-09-09T17:59:30.157Z,1.58
2022-09-09T18:02:01.186Z,1.20
2022-09-09T18:07:56.453Z,1.30
2022-09-09T18:10:26.287Z,1.35
2022-09-09T18:12:55.389Z,1.90
2022-09-09T18:15:48.238Z,1.33
2022-09-09T18:18:14.239Z,1.20
2022-09-09T18:20:44.743Z,2.20
2022-09-09T18:23:14.084Z,1.80
2022-09-09T18:25:42.975Z,1.45
2022-09-09T18:28:11.938Z,1.90
2022-09-09T18:30:41.653Z,1.80
2022-09-09T18:33:10.232Z,1.67
2022-09-09T18:35:39.224Z,1.33
2022-09-09T18:38:08.335Z,1.55
2022-09-09T18:40:37.889Z,2.60
2022-09-09T18:43:05.990Z,2.03
2022-09-09T18:45:38.208Z,1.60
2022-09-09T18:48:06.736Z,1.50
2022-09-09T18:50:36.137Z,1.60
2022-09-09T18:53:04.276Z,1.20
2022-09-09T18:55:32.849Z,3.92
2022-09-09T18:58:03.512Z,1.77
2022-09-09T19:00:32.908Z,3.22
2022-09-09T19:03:01.203Z,1.38
2022-09-09T19:05:31.741Z,1.20
2022-09-09T19:08:00.687Z,1.58
2022-09-09T19:10:30.900Z,1.00
2022-09-09T19:12:59.685Z,2.13
2022-09-09T19:15:33.359Z,1.10
2022-09-09T19:18:05.753Z,1.40
2022-09-09T19:20:34.264Z,1.70
2022-09-09T19:23:02.685Z,1.80
2022-09-09T19:25:32.289Z,1.63
2022-09-09T19:28:07.458Z,1.60
2022-09-09T19:30:37.501Z,1.85
2022-09-09T19:33:05.754Z,1.40
2022-09-09T19:35:34.168Z,1.27
2022-09-09T19:38:04.242Z,1.13
2022-09-09T19:40:34.979Z,1.10
2022-09-09T19:43:05.558Z,1.90
2022-09-09T19:45:34.287Z,1.50
2022-09-09T19:48:06.737Z,1.38
2022-09-09T19:50:37.329Z,1.55
2022-09-09T21:10:11.071Z,1.90
2022-09-09T21:12:39.385Z,1.50
2022-09-09T21:15:07.894Z,1.80
2022-09-09T21:17:35.777Z,1.67
2022-09-09T21:20:04.488Z,2.28
2022-09-09T21:22:32.487Z,1.92
2022-09-09T21:25:00.644Z,1.52
2022-09-09T21:27:30.102Z,1.58
2022-09-09T21:29:58.060Z,1.52
2022-09-09T21:32:25.857Z,3.20
2022-09-09T21:34:53.596Z,3.67
2022-09-09T21:37:21.589Z,2.40
2022-09-09T21:39:50.458Z,1.65
2022-09-09T21:42:18.337Z,1.70
2022-09-09T21:44:47.913Z,1.95
2022-09-09T21:47:16.176Z,1.73
2022-09-09T21:49:44.161Z,1.92
2022-09-09T21:52:12.411Z,1.55
2022-09-09T21:54:43.784Z,1.83
2022-09-09T21:57:14.287Z,1.65
2022-09-09T21:59:42.687Z,1.92
2022-09-09T22:02:14.233Z,2.55
2022-09-09T22:04:43.315Z,1.83
2022-09-09T22:07:12.030Z,2.13
2022-09-09T22:09:39.989Z,2.20
2022-09-09T22:12:10.108Z,2.20
2022-09-09T22:14:38.706Z,2.70
2022-09-09T22:17:07.420Z,2.95
2022-09-09T22:19:36.665Z,2.47
2022-09-09T22:22:04.847Z,2.33
2022-09-09T22:24:33.099Z,2.78
2022-09-09T22:27:01.401Z,2.50
2022-09-09T22:29:29.510Z,2.60
2022-09-09T22:31:57.787Z,2.70
2022-09-09T22:34:28.753Z,2.55
2022-09-09T22:36:58.436Z,2.63
2022-09-09T22:39:26.321Z,2.53
2022-09-09T22:41:53.984Z,2.33
2022-09-09T22:44:23.086Z,2.35
2022-09-09T22:46:51.546Z,2.70
2022-09-09T22:49:20.226Z,2.72
2022-09-09T22:51:48.037Z,2.55
2022-09-09T22:54:21.630Z,2.83
2022-09-09T22:59:18.217Z,2.67
2022-09-09T23:01:46.806Z,2.40
2022-09-09T23:04:15.116Z,2.40
2022-09-09T23:06:44.976Z,2.72
2022-09-09T23:09:13.257Z,2.97
2022-09-09T23:11:42.565Z,3.00
2022-09-09T23:14:12.795Z,2.70
2022-09-09T23:16:43.961Z,2.78
2022-09-09T23:19:16.040Z,2.95
2022-09-09T23:21:46.092Z,2.78
2022-09-09T23:24:16.785Z,2.85
2022-09-09T23:26:47.530Z,2.92
2022-09-09T23:29:16.047Z,2.50
2022-09-09T23:31:46.261Z,2.70
2022-09-09T23:34:14.968Z,2.40
2022-09-09T23:36:43.296Z,2.20
2022-09-09T23:39:13.264Z,2.75
2022-09-09T23:41:41.464Z,1.95
2022-09-09T23:44:13.151Z,3.00
2022-09-09T23:46:41.296Z,2.28
2022-09-09T23:49:10.018Z,2.80
2022-09-09T23:51:41.608Z,2.17
2022-09-09T23:54:10.776Z,2.40
2022-09-09T23:56:41.302Z,2.30
2022-09-09T23:59:13.857Z,2.70
